sensor_id;sensor_type;location;lat;lon;timestamp;P1;durP1;ratioP1;P2;durP2;ratioP2
21521;SDS011;10922;45.572;10.002;2023-04-25T00:01:10;2.53;;;2.30;;
21521;SDS011;10922;45.572;10.002;2023-04-25T00:03:39;4.17;;;2.67;;
21521;SDS011;10922;45.572;10.002;2023-04-25T00:06:05;3.73;;;2.67;;
21521;SDS011;10922;45.572;10.002;2023-04-25T00:08:31;3.93;;;2.70;;
21521;SDS011;10922;45.572;10.002;2023-04-25T00:10:57;2.83;;;2.63;;
21521;SDS011;10922;45.572;10.002;2023-04-25T00:13:24;2.67;;;2.47;;
21521;SDS011;10922;45.572;10.002;2023-04-25T00:15:50;3.73;;;2.63;;
21521;SDS011;10922;45.572;10.002;2023-04-25T00:18:18;2.77;;;2.50;;
21521;SDS011;10922;45.572;10.002;2023-04-25T00:20:44;3.47;;;2.90;;
21521;SDS011;10922;45.572;10.002;2023-04-25T00:23:14;2.70;;;2.50;;
21521;SDS011;10922;45.572;10.002;2023-04-25T00:25:47;2.80;;;2.60;;
21521;SDS011;10922;45.572;10.002;2023-04-25T00:28:14;3.43;;;2.93;;
21521;SDS011;10922;45.572;10.002;2023-04-25T00:30:40;3.87;;;2.80;;
21521;SDS011;10922;45.572;10.002;2023-04-25T00:33:06;3.10;;;2.90;;
21521;SDS011;10922;45.572;10.002;2023-04-25T00:35:32;4.47;;;3.23;;
21521;SDS011;10922;45.572;10.002;2023-04-25T00:37:58;3.17;;;2.90;;
21521;SDS011;10922;45.572;10.002;2023-04-25T00:40:24;3.17;;;2.90;;
21521;SDS011;10922;45.572;10.002;2023-04-25T00:42:50;3.20;;;2.90;;
21521;SDS011;10922;45.572;10.002;2023-04-25T00:45:17;2.93;;;2.67;;
21521;SDS011;10922;45.572;10.002;2023-04-25T00:47:44;2.97;;;2.60;;
21521;SDS011;10922;45.572;10.002;2023-04-25T00:50:10;5.10;;;2.70;;
21521;SDS011;10922;45.572;10.002;2023-04-25T00:52:37;3.17;;;2.97;;
21521;SDS011;10922;45.572;10.002;2023-04-25T00:55:05;3.47;;;3.17;;
21521;SDS011;10922;45.572;10.002;2023-04-25T00:57:31;3.20;;;2.90;;
21521;SDS011;10922;45.572;10.002;2023-04-25T00:59:57;2.67;;;2.47;;
21521;SDS011;10922;45.572;10.002;2023-04-25T01:02:23;3.43;;;2.60;;
21521;SDS011;10922;45.572;10.002;2023-04-25T01:04:50;2.73;;;2.53;;
21521;SDS011;10922;45.572;10.002;2023-04-25T01:07:16;3.00;;;2.80;;
21521;SDS011;10922;45.572;10.002;2023-04-25T01:09:42;3.73;;;2.90;;
21521;SDS011;10922;45.572;10.002;2023-04-25T01:12:07;3.03;;;2.50;;
21521;SDS011;10922;45.572;10.002;2023-04-25T01:14:33;3.20;;;2.90;;
21521;SDS011;10922;45.572;10.002;2023-04-25T01:16:59;3.10;;;2.80;;
21521;SDS011;10922;45.572;10.002;2023-04-25T01:19:25;3.13;;;2.80;;
21521;SDS011;10922;45.572;10.002;2023-04-25T01:21:51;4.20;;;2.77;;
21521;SDS011;10922;45.572;10.002;2023-04-25T01:24:16;2.67;;;2.47;;
21521;SDS011;10922;45.572;10.002;2023-04-25T01:26:43;2.40;;;2.20;;
21521;SDS011;10922;45.572;10.002;2023-04-25T01:29:17;1.90;;;1.80;;
21521;SDS011;10922;45.572;10.002;2023-04-25T01:31:44;2.13;;;1.93;;
21521;SDS011;10922;45.572;10.002;2023-04-25T01:34:10;2.30;;;2.03;;
21521;SDS011;10922;45.572;10.002;2023-04-25T01:36:36;2.17;;;2.00;;
21521;SDS011;10922;45.572;10.002;2023-04-25T01:39:02;3.13;;;2.57;;
21521;SDS011;10922;45.572;10.002;2023-04-25T01:41:28;2.07;;;1.97;;
21521;SDS011;10922;45.572;10.002;2023-04-25T01:43:54;3.00;;;2.43;;
21521;SDS011;10922;45.572;10.002;2023-04-25T01:46:20;2.60;;;2.40;;
21521;SDS011;10922;45.572;10.002;2023-04-25T01:48:46;2.50;;;2.27;;
21521;SDS011;10922;45.572;10.002;2023-04-25T01:51:12;2.13;;;1.97;;
21521;SDS011;10922;45.572;10.002;2023-04-25T01:53:38;2.23;;;2.10;;
21521;SDS011;10922;45.572;10.002;2023-04-25T01:56:05;3.77;;;2.70;;
21521;SDS011;10922;45.572;10.002;2023-04-25T01:58:30;3.97;;;2.60;;
21521;SDS011;10922;45.572;10.002;2023-04-25T02:00:56;2.80;;;2.60;;
21521;SDS011;10922;45.572;10.002;2023-04-25T02:03:22;2.77;;;2.57;;
21521;SDS011;10922;45.572;10.002;2023-04-25T02:05:48;3.83;;;2.80;;
21521;SDS011;10922;45.572;10.002;2023-04-25T02:08:13;5.03;;;2.83;;
21521;SDS011;10922;45.572;10.002;2023-04-25T02:10:41;2.80;;;2.60;;
21521;SDS011;10922;45.572;10.002;2023-04-25T02:13:07;2.80;;;2.50;;
21521;SDS011;10922;45.572;10.002;2023-04-25T02:15:32;3.90;;;2.90;;
21521;SDS011;10922;45.572;10.002;2023-04-25T02:17:58;4.23;;;2.90;;
21521;SDS011;10922;45.572;10.002;2023-04-25T02:20:25;2.70;;;2.50;;
21521;SDS011;10922;45.572;10.002;2023-04-25T02:22:51;6.53;;;3.33;;
21521;SDS011;10922;45.572;10.002;2023-04-25T02:25:17;3.27;;;2.77;;
21521;SDS011;10922;45.572;10.002;2023-04-25T02:27:46;2.80;;;2.60;;
21521;SDS011;10922;45.572;10.002;2023-04-25T02:30:12;3.33;;;2.70;;
21521;SDS011;10922;45.572;10.002;2023-04-25T02:32:38;4.07;;;3.17;;
21521;SDS011;10922;45.572;10.002;2023-04-25T02:35:05;2.67;;;2.47;;
21521;SDS011;10922;45.572;10.002;2023-04-25T02:37:35;2.23;;;2.13;;
21521;SDS011;10922;45.572;10.002;2023-04-25T02:40:02;2.67;;;2.47;;
21521;SDS011;10922;45.572;10.002;2023-04-25T02:42:29;3.00;;;2.80;;
21521;SDS011;10922;45.572;10.002;2023-04-25T02:44:55;2.80;;;2.60;;
21521;SDS011;10922;45.572;10.002;2023-04-25T02:47:21;2.60;;;2.40;;
21521;SDS011;10922;45.572;10.002;2023-04-25T02:49:46;3.23;;;2.57;;
21521;SDS011;10922;45.572;10.002;2023-04-25T02:52:12;2.70;;;2.50;;
21521;SDS011;10922;45.572;10.002;2023-04-25T02:54:39;3.03;;;2.73;;
21521;SDS011;10922;45.572;10.002;2023-04-25T02:57:05;3.17;;;2.90;;
21521;SDS011;10922;45.572;10.002;2023-04-25T02:59:31;3.27;;;3.00;;
21521;SDS011;10922;45.572;10.002;2023-04-25T03:01:56;4.43;;;2.80;;
21521;SDS011;10922;45.572;10.002;2023-04-25T03:04:22;3.50;;;3.10;;
21521;SDS011;10922;45.572;10.002;2023-04-25T03:06:49;7.07;;;3.63;;
21521;SDS011;10922;45.572;10.002;2023-04-25T03:09:15;4.10;;;3.33;;
21521;SDS011;10922;45.572;10.002;2023-04-25T03:11:41;4.73;;;3.53;;
21521;SDS011;10922;45.572;10.002;2023-04-25T03:14:07;3.97;;;3.50;;
21521;SDS011;10922;45.572;10.002;2023-04-25T03:16:33;5.73;;;4.00;;
21521;SDS011;10922;45.572;10.002;2023-04-25T03:18:58;3.60;;;3.30;;
21521;SDS011;10922;45.572;10.002;2023-04-25T03:21:25;3.27;;;2.97;;
21521;SDS011;10922;45.572;10.002;2023-04-25T03:23:51;3.97;;;2.70;;
21521;SDS011;10922;45.572;10.002;2023-04-25T03:26:17;2.73;;;2.20;;
21521;SDS011;10922;45.572;10.002;2023-04-25T03:28:42;2.40;;;2.20;;
21521;SDS011;10922;45.572;10.002;2023-04-25T03:31:08;3.40;;;2.27;;
21521;SDS011;10922;45.572;10.002;2023-04-25T03:33:34;2.30;;;1.80;;
21521;SDS011;10922;45.572;10.002;2023-04-25T03:35:59;2.20;;;1.53;;
21521;SDS011;10922;45.572;10.002;2023-04-25T03:38:25;3.43;;;1.50;;
21521;SDS011;10922;45.572;10.002;2023-04-25T03:40:52;3.27;;;1.80;;
21521;SDS011;10922;45.572;10.002;2023-04-25T03:43:18;1.50;;;1.27;;
21521;SDS011;10922;45.572;10.002;2023-04-25T03:45:44;1.37;;;1.27;;
21521;SDS011;10922;45.572;10.002;2023-04-25T03:48:10;1.43;;;1.30;;
21521;SDS011;10922;45.572;10.002;2023-04-25T03:50:36;3.30;;;1.17;;
21521;SDS011;10922;45.572;10.002;2023-04-25T03:53:02;2.27;;;1.40;;
21521;SDS011;10922;45.572;10.002;2023-04-25T03:55:27;3.53;;;2.00;;
21521;SDS011;10922;45.572;10.002;2023-04-25T03:57:53;1.57;;;1.33;;
21521;SDS011;10922;45.572;10.002;2023-04-25T04:00:19;2.47;;;1.20;;
21521;SDS011;10922;45.572;10.002;2023-04-25T04:02:44;3.00;;;1.80;;
21521;SDS011;10922;45.572;10.002;2023-04-25T04:05:10;1.73;;;1.47;;
21521;SDS011;10922;45.572;10.002;2023-04-25T04:07:36;2.57;;;1.90;;
21521;SDS011;10922;45.572;10.002;2023-04-25T04:10:08;3.33;;;1.47;;
21521;SDS011;10922;45.572;10.002;2023-04-25T04:12:35;2.93;;;1.80;;
21521;SDS011;10922;45.572;10.002;2023-04-25T04:15:02;2.67;;;1.60;;
21521;SDS011;10922;45.572;10.002;2023-04-25T04:17:31;2.50;;;1.60;;
21521;SDS011;10922;45.572;10.002;2023-04-25T04:19:57;1.80;;;1.63;;
21521;SDS011;10922;45.572;10.002;2023-04-25T04:22:23;2.97;;;1.50;;
21521;SDS011;10922;45.572;10.002;2023-04-25T04:24:49;1.67;;;1.50;;
21521;SDS011;10922;45.572;10.002;2023-04-25T04:27:15;3.10;;;1.60;;
21521;SDS011;10922;45.572;10.002;2023-04-25T04:29:44;2.13;;;1.73;;
21521;SDS011;10922;45.572;10.002;2023-04-25T04:32:11;1.97;;;1.50;;
21521;SDS011;10922;45.572;10.002;2023-04-25T04:34:37;4.23;;;1.97;;
21521;SDS011;10922;45.572;10.002;2023-04-25T04:37:04;3.70;;;1.60;;
21521;SDS011;10922;45.572;10.002;2023-04-25T04:39:30;1.80;;;1.60;;
21521;SDS011;10922;45.572;10.002;2023-04-25T04:41:56;1.50;;;1.40;;
21521;SDS011;10922;45.572;10.002;2023-04-25T04:44:22;2.07;;;1.97;;
21521;SDS011;10922;45.572;10.002;2023-04-25T04:46:47;1.93;;;1.80;;
21521;SDS011;10922;45.572;10.002;2023-04-25T04:49:13;2.17;;;1.87;;
21521;SDS011;10922;45.572;10.002;2023-04-25T04:51:39;2.13;;;2.00;;
21521;SDS011;10922;45.572;10.002;2023-04-25T04:54:09;1.90;;;1.80;;
21521;SDS011;10922;45.572;10.002;2023-04-25T04:56:35;3.30;;;1.97;;
21521;SDS011;10922;45.572;10.002;2023-04-25T04:59:01;3.13;;;1.77;;
21521;SDS011;10922;45.572;10.002;2023-04-25T05:01:27;2.23;;;2.00;;
21521;SDS011;10922;45.572;10.002;2023-04-25T05:03:54;2.50;;;1.97;;
21521;SDS011;10922;45.572;10.002;2023-04-25T05:06:25;2.73;;;2.20;;
21521;SDS011;10922;45.572;10.002;2023-04-25T05:08:54;4.03;;;2.20;;
21521;SDS011;10922;45.572;10.002;2023-04-25T05:11:21;2.50;;;1.80;;
21521;SDS011;10922;45.572;10.002;2023-04-25T05:13:48;2.10;;;1.60;;
21521;SDS011;10922;45.572;10.002;2023-04-25T05:16:14;3.67;;;2.20;;
21521;SDS011;10922;45.572;10.002;2023-04-25T05:18:40;3.03;;;1.97;;
21521;SDS011;10922;45.572;10.002;2023-04-25T05:21:06;2.43;;;2.23;;
21521;SDS011;10922;45.572;10.002;2023-04-25T05:23:32;2.40;;;2.20;;
21521;SDS011;10922;45.572;10.002;2023-04-25T05:25:58;1.97;;;1.87;;
21521;SDS011;10922;45.572;10.002;2023-04-25T05:28:24;2.70;;;2.50;;
21521;SDS011;10922;45.572;10.002;2023-04-25T05:30:49;2.60;;;2.40;;
21521;SDS011;10922;45.572;10.002;2023-04-25T05:33:15;3.40;;;2.60;;
21521;SDS011;10922;45.572;10.002;2023-04-25T05:35:41;2.80;;;2.57;;
21521;SDS011;10922;45.572;10.002;2023-04-25T05:38:07;2.63;;;2.43;;
21521;SDS011;10922;45.572;10.002;2023-04-25T05:40:33;2.10;;;1.90;;
21521;SDS011;10922;45.572;10.002;2023-04-25T05:42:58;2.93;;;2.00;;
21521;SDS011;10922;45.572;10.002;2023-04-25T05:45:24;3.70;;;1.90;;
21521;SDS011;10922;45.572;10.002;2023-04-25T05:47:50;3.30;;;2.20;;
21521;SDS011;10922;45.572;10.002;2023-04-25T05:50:17;2.40;;;2.20;;
21521;SDS011;10922;45.572;10.002;2023-04-25T05:52:44;6.93;;;1.83;;
21521;SDS011;10922;45.572;10.002;2023-04-25T05:55:10;2.17;;;1.97;;
21521;SDS011;10922;45.572;10.002;2023-04-25T05:57:35;2.03;;;1.80;;
21521;SDS011;10922;45.572;10.002;2023-04-25T06:00:01;2.70;;;1.90;;
21521;SDS011;10922;45.572;10.002;2023-04-25T06:02:27;2.00;;;1.60;;
21521;SDS011;10922;45.572;10.002;2023-04-25T06:04:52;2.30;;;1.80;;
21521;SDS011;10922;45.572;10.002;2023-04-25T06:07:21;4.03;;;2.10;;
21521;SDS011;10922;45.572;10.002;2023-04-25T06:09:47;1.97;;;1.87;;
21521;SDS011;10922;45.572;10.002;2023-04-25T06:12:12;2.10;;;1.93;;
21521;SDS011;10922;45.572;10.002;2023-04-25T06:14:38;1.97;;;1.87;;
21521;SDS011;10922;45.572;10.002;2023-04-25T06:17:04;1.90;;;1.80;;
21521;SDS011;10922;45.572;10.002;2023-04-25T06:19:33;1.93;;;1.80;;
21521;SDS011;10922;45.572;10.002;2023-04-25T06:22:00;2.07;;;1.87;;
21521;SDS011;10922;45.572;10.002;2023-04-25T06:24:27;4.27;;;1.80;;
21521;SDS011;10922;45.572;10.002;2023-04-25T06:26:53;1.87;;;1.67;;
21521;SDS011;10922;45.572;10.002;2023-04-25T06:29:19;2.37;;;1.60;;
21521;SDS011;10922;45.572;10.002;2023-04-25T06:31:45;2.07;;;1.87;;
21521;SDS011;10922;45.572;10.002;2023-04-25T06:34:11;1.80;;;1.53;;
21521;SDS011;10922;45.572;10.002;2023-04-25T06:36:37;2.33;;;2.13;;
21521;SDS011;10922;45.572;10.002;2023-04-25T06:39:02;2.10;;;2.00;;
21521;SDS011;10922;45.572;10.002;2023-04-25T06:41:28;1.87;;;1.60;;
21521;SDS011;10922;45.572;10.002;2023-04-25T06:43:53;3.07;;;1.80;;
21521;SDS011;10922;45.572;10.002;2023-04-25T06:46:19;3.07;;;1.73;;
21521;SDS011;10922;45.572;10.002;2023-04-25T06:48:45;2.17;;;1.87;;
21521;SDS011;10922;45.572;10.002;2023-04-25T06:51:11;1.70;;;1.60;;
21521;SDS011;10922;45.572;10.002;2023-04-25T06:53:38;1.80;;;1.60;;
21521;SDS011;10922;45.572;10.002;2023-04-25T06:56:04;1.50;;;1.40;;
21521;SDS011;10922;45.572;10.002;2023-04-25T06:58:30;2.73;;;1.67;;
21521;SDS011;10922;45.572;10.002;2023-04-25T07:00:55;1.83;;;1.73;;
21521;SDS011;10922;45.572;10.002;2023-04-25T07:03:21;2.47;;;1.70;;
21521;SDS011;10922;45.572;10.002;2023-04-25T07:05:47;1.67;;;1.50;;
21521;SDS011;10922;45.572;10.002;2023-04-25T07:08:12;2.90;;;1.57;;
21521;SDS011;10922;45.572;10.002;2023-04-25T07:10:38;3.23;;;1.90;;
21521;SDS011;10922;45.572;10.002;2023-04-25T07:13:12;2.43;;;2.27;;
21521;SDS011;10922;45.572;10.002;2023-04-25T07:15:37;2.60;;;2.40;;
21521;SDS011;10922;45.572;10.002;2023-04-25T07:18:03;2.50;;;2.30;;
21521;SDS011;10922;45.572;10.002;2023-04-25T07:20:29;2.47;;;2.27;;
21521;SDS011;10922;45.572;10.002;2023-04-25T07:22:56;2.60;;;2.40;;
21521;SDS011;10922;45.572;10.002;2023-04-25T07:25:21;2.07;;;1.97;;
21521;SDS011;10922;45.572;10.002;2023-04-25T07:27:47;2.47;;;2.30;;
21521;SDS011;10922;45.572;10.002;2023-04-25T07:30:13;2.47;;;2.27;;
21521;SDS011;10922;45.572;10.002;2023-04-25T07:32:39;2.20;;;1.97;;
21521;SDS011;10922;45.572;10.002;2023-04-25T07:35:05;4.17;;;2.10;;
21521;SDS011;10922;45.572;10.002;2023-04-25T07:37:32;3.90;;;2.23;;
21521;SDS011;10922;45.572;10.002;2023-04-25T07:39:58;2.87;;;2.60;;
21521;SDS011;10922;45.572;10.002;2023-04-25T07:42:24;4.37;;;2.50;;
21521;SDS011;10922;45.572;10.002;2023-04-25T07:44:50;3.63;;;2.47;;
21521;SDS011;10922;45.572;10.002;2023-04-25T07:47:16;2.70;;;2.50;;
21521;SDS011;10922;45.572;10.002;2023-04-25T07:49:44;3.03;;;2.60;;
21521;SDS011;10922;45.572;10.002;2023-04-25T07:52:10;3.30;;;2.50;;
21521;SDS011;10922;45.572;10.002;2023-04-25T07:54:36;4.00;;;2.77;;
21521;SDS011;10922;45.572;10.002;2023-04-25T07:57:02;3.17;;;2.70;;
21521;SDS011;10922;45.572;10.002;2023-04-25T07:59:28;3.00;;;2.70;;
21521;SDS011;10922;45.572;10.002;2023-04-25T08:01:54;2.67;;;2.47;;
21521;SDS011;10922;45.572;10.002;2023-04-25T08:04:19;2.77;;;2.57;;
21521;SDS011;10922;45.572;10.002;2023-04-25T08:06:45;6.37;;;2.53;;
21521;SDS011;10922;45.572;10.002;2023-04-25T08:09:11;2.93;;;2.10;;
21521;SDS011;10922;45.572;10.002;2023-04-25T08:11:37;2.40;;;2.20;;
21521;SDS011;10922;45.572;10.002;2023-04-25T08:14:02;3.47;;;2.07;;
21521;SDS011;10922;45.572;10.002;2023-04-25T08:16:28;2.40;;;2.20;;
21521;SDS011;10922;45.572;10.002;2023-04-25T08:18:53;2.53;;;2.33;;
21521;SDS011;10922;45.572;10.002;2023-04-25T08:21:19;2.20;;;2.10;;
21521;SDS011;10922;45.572;10.002;2023-04-25T08:23:45;2.83;;;2.10;;
21521;SDS011;10922;45.572;10.002;2023-04-25T08:26:11;2.33;;;2.23;;
21521;SDS011;10922;45.572;10.002;2023-04-25T08:28:36;3.20;;;2.40;;
21521;SDS011;10922;45.572;10.002;2023-04-25T08:31:02;2.80;;;2.63;;
21521;SDS011;10922;45.572;10.002;2023-04-25T08:33:28;2.50;;;2.30;;
21521;SDS011;10922;45.572;10.002;2023-04-25T08:35:55;4.57;;;3.23;;
21521;SDS011;10922;45.572;10.002;2023-04-25T08:38:20;3.13;;;2.90;;
21521;SDS011;10922;45.572;10.002;2023-04-25T08:40:48;2.53;;;2.33;;
21521;SDS011;10922;45.572;10.002;2023-04-25T08:43:16;3.80;;;2.80;;
21521;SDS011;10922;45.572;10.002;2023-04-25T08:45:44;2.90;;;2.70;;
21521;SDS011;10922;45.572;10.002;2023-04-25T08:48:11;4.53;;;3.23;;
21521;SDS011;10922;45.572;10.002;2023-04-25T08:50:44;3.67;;;3.17;;
21521;SDS011;10922;45.572;10.002;2023-04-25T08:53:15;2.97;;;2.77;;
21521;SDS011;10922;45.572;10.002;2023-04-25T08:55:43;2.93;;;2.60;;
21521;SDS011;10922;45.572;10.002;2023-04-25T08:58:11;4.90;;;2.97;;
21521;SDS011;10922;45.572;10.002;2023-04-25T09:00:38;2.70;;;2.40;;
21521;SDS011;10922;45.572;10.002;2023-04-25T09:03:04;2.67;;;2.50;;
21521;SDS011;10922;45.572;10.002;2023-04-25T09:05:32;3.13;;;2.60;;
21521;SDS011;10922;45.572;10.002;2023-04-25T09:07:57;2.60;;;2.40;;
21521;SDS011;10922;45.572;10.002;2023-04-25T09:10:23;2.97;;;2.77;;
21521;SDS011;10922;45.572;10.002;2023-04-25T09:13:04;2.77;;;2.47;;
21521;SDS011;10922;45.572;10.002;2023-04-25T09:15:46;2.87;;;2.30;;
21521;SDS011;10922;45.572;10.002;2023-04-25T09:18:14;2.70;;;2.50;;
21521;SDS011;10922;45.572;10.002;2023-04-25T09:20:51;2.73;;;2.53;;
21521;SDS011;10922;45.572;10.002;2023-04-25T09:23:19;2.20;;;2.10;;
21521;SDS011;10922;45.572;10.002;2023-04-25T09:25:50;2.83;;;2.63;;
21521;SDS011;10922;45.572;10.002;2023-04-25T09:28:22;3.73;;;3.43;;
21521;SDS011;10922;45.572;10.002;2023-04-25T09:30:54;4.13;;;2.80;;
21521;SDS011;10922;45.572;10.002;2023-04-25T09:33:23;3.10;;;2.80;;
21521;SDS011;10922;45.572;10.002;2023-04-25T09:36:01;2.77;;;2.57;;
21521;SDS011;10922;45.572;10.002;2023-04-25T09:38:27;2.70;;;2.50;;
21521;SDS011;10922;45.572;10.002;2023-04-25T09:41:05;2.40;;;2.20;;
21521;SDS011;10922;45.572;10.002;2023-04-25T09:43:30;2.40;;;2.20;;
21521;SDS011;10922;45.572;10.002;2023-04-25T09:45:56;2.60;;;2.40;;
21521;SDS011;10922;45.572;10.002;2023-04-25T09:48:26;2.77;;;2.23;;
21521;SDS011;10922;45.572;10.002;2023-04-25T09:51:09;3.07;;;2.77;;
21521;SDS011;10922;45.572;10.002;2023-04-25T09:53:39;2.43;;;2.23;;
21521;SDS011;10922;45.572;10.002;2023-04-25T09:56:07;3.57;;;2.60;;
21521;SDS011;10922;45.572;10.002;2023-04-25T09:58:35;3.37;;;1.90;;
21521;SDS011;10922;45.572;10.002;2023-04-25T10:01:02;2.40;;;2.20;;
21521;SDS011;10922;45.572;10.002;2023-04-25T10:03:31;7.07;;;2.20;;
21521;SDS011;10922;45.572;10.002;2023-04-25T10:06:01;2.23;;;2.13;;
21521;SDS011;10922;45.572;10.002;2023-04-25T10:08:33;2.10;;;2.00;;
21521;SDS011;10922;45.572;10.002;2023-04-25T10:11:05;2.57;;;2.37;;
21521;SDS011;10922;45.572;10.002;2023-04-25T10:13:33;2.23;;;2.13;;
21521;SDS011;10922;45.572;10.002;2023-04-25T10:16:00;2.27;;;2.17;;
21521;SDS011;10922;45.572;10.002;2023-04-25T10:18:28;1.83;;;1.73;;
21521;SDS011;10922;45.572;10.002;2023-04-25T10:20:59;2.07;;;1.90;;
21521;SDS011;10922;45.572;10.002;2023-04-25T10:23:26;1.90;;;1.80;;
21521;SDS011;10922;45.572;10.002;2023-04-25T10:25:54;2.23;;;2.00;;
21521;SDS011;10922;45.572;10.002;2023-04-25T10:28:20;2.23;;;2.07;;
21521;SDS011;10922;45.572;10.002;2023-04-25T10:31:00;2.10;;;2.00;;
21521;SDS011;10922;45.572;10.002;2023-04-25T10:36:13;2.33;;;2.13;;
21521;SDS011;10922;45.572;10.002;2023-04-25T10:38:42;2.07;;;1.90;;
21521;SDS011;10922;45.572;10.002;2023-04-25T10:41:09;1.53;;;1.50;;
21521;SDS011;10922;45.572;10.002;2023-04-25T10:46:16;1.70;;;1.60;;
21521;SDS011;10922;45.572;10.002;2023-04-25T10:48:47;2.03;;;1.83;;
21521;SDS011;10922;45.572;10.002;2023-04-25T10:51:18;1.87;;;1.77;;
21521;SDS011;10922;45.572;10.002;2023-04-25T10:53:57;2.23;;;1.20;;
21521;SDS011;10922;45.572;10.002;2023-04-25T10:56:26;1.80;;;1.70;;
21521;SDS011;10922;45.572;10.002;2023-04-25T10:59:10;1.40;;;1.40;;
21521;SDS011;10922;45.572;10.002;2023-04-25T11:04:21;1.33;;;1.23;;
21521;SDS011;10922;45.572;10.002;2023-04-25T11:09:41;1.90;;;1.80;;
21521;SDS011;10922;45.572;10.002;2023-04-25T11:12:10;3.20;;;1.60;;
21521;SDS011;10922;45.572;10.002;2023-04-25T11:14:39;1.40;;;1.30;;
21521;SDS011;10922;45.572;10.002;2023-04-25T11:17:05;1.50;;;1.40;;
21521;SDS011;10922;45.572;10.002;2023-04-25T11:19:31;2.03;;;1.60;;
21521;SDS011;10922;45.572;10.002;2023-04-25T11:22:00;2.10;;;1.90;;
21521;SDS011;10922;45.572;10.002;2023-04-25T11:24:28;3.47;;;1.63;;
21521;SDS011;10922;45.572;10.002;2023-04-25T11:26:55;2.50;;;1.60;;
21521;SDS011;10922;45.572;10.002;2023-04-25T11:29:23;2.70;;;1.70;;
21521;SDS011;10922;45.572;10.002;2023-04-25T11:31:51;2.43;;;1.70;;
21521;SDS011;10922;45.572;10.002;2023-04-25T11:34:18;2.23;;;2.03;;
21521;SDS011;10922;45.572;10.002;2023-04-25T11:36:44;3.57;;;1.83;;
21521;SDS011;10922;45.572;10.002;2023-04-25T11:39:11;1.87;;;1.67;;
21521;SDS011;10922;45.572;10.002;2023-04-25T11:41:37;1.63;;;1.53;;
21521;SDS011;10922;45.572;10.002;2023-04-25T11:44:03;1.97;;;1.80;;
21521;SDS011;10922;45.572;10.002;2023-04-25T11:46:30;1.90;;;1.30;;
21521;SDS011;10922;45.572;10.002;2023-04-25T11:48:58;2.47;;;1.53;;
21521;SDS011;10922;45.572;10.002;2023-04-25T11:51:24;2.70;;;1.57;;
21521;SDS011;10922;45.572;10.002;2023-04-25T11:53:51;2.93;;;1.57;;
21521;SDS011;10922;45.572;10.002;2023-04-25T11:56:17;1.50;;;1.40;;
21521;SDS011;10922;45.572;10.002;2023-04-25T12:04:10;1.73;;;1.50;;
21521;SDS011;10922;45.572;10.002;2023-04-25T12:06:41;1.83;;;1.50;;
21521;SDS011;10922;45.572;10.002;2023-04-25T12:09:11;1.80;;;1.70;;
21521;SDS011;10922;45.572;10.002;2023-04-25T12:11:44;2.20;;;2.00;;
21521;SDS011;10922;45.572;10.002;2023-04-25T12:14:19;2.03;;;1.87;;
21521;SDS011;10922;45.572;10.002;2023-04-25T12:16:56;1.70;;;1.57;;
21521;SDS011;10922;45.572;10.002;2023-04-25T12:19:23;2.00;;;1.47;;
21521;SDS011;10922;45.572;10.002;2023-04-25T12:21:50;1.87;;;1.77;;
21521;SDS011;10922;45.572;10.002;2023-04-25T12:26:48;3.57;;;2.57;;
21521;SDS011;10922;45.572;10.002;2023-04-25T12:29:22;2.37;;;2.20;;
21521;SDS011;10922;45.572;10.002;2023-04-25T12:31:49;2.53;;;1.97;;
21521;SDS011;10922;45.572;10.002;2023-04-25T12:34:17;4.03;;;1.87;;
21521;SDS011;10922;45.572;10.002;2023-04-25T12:36:43;2.63;;;2.43;;
21521;SDS011;10922;45.572;10.002;2023-04-25T12:39:13;2.47;;;2.27;;
21521;SDS011;10922;45.572;10.002;2023-04-25T12:41:49;2.50;;;2.30;;
21521;SDS011;10922;45.572;10.002;2023-04-25T12:44:15;2.23;;;2.03;;
21521;SDS011;10922;45.572;10.002;2023-04-25T12:46:42;4.93;;;2.13;;
21521;SDS011;10922;45.572;10.002;2023-04-25T12:49:08;2.20;;;2.00;;
21521;SDS011;10922;45.572;10.002;2023-04-25T12:51:34;3.90;;;2.33;;
21521;SDS011;10922;45.572;10.002;2023-04-25T12:54:01;4.13;;;3.00;;
21521;SDS011;10922;45.572;10.002;2023-04-25T12:56:27;7.73;;;3.80;;
21521;SDS011;10922;45.572;10.002;2023-04-25T12:58:53;2.83;;;2.63;;
21521;SDS011;10922;45.572;10.002;2023-04-25T13:01:20;2.97;;;2.60;;
21521;SDS011;10922;45.572;10.002;2023-04-25T13:03:46;2.50;;;2.30;;
21521;SDS011;10922;45.572;10.002;2023-04-25T13:06:13;3.63;;;1.50;;
21521;SDS011;10922;45.572;10.002;2023-04-25T13:08:39;2.60;;;1.83;;
21521;SDS011;10922;45.572;10.002;2023-04-25T13:11:05;2.10;;;1.90;;
21521;SDS011;10922;45.572;10.002;2023-04-25T13:13:31;3.43;;;1.70;;
21521;SDS011;10922;45.572;10.002;2023-04-25T13:15:57;2.03;;;1.43;;
21521;SDS011;10922;45.572;10.002;2023-04-25T13:18:23;1.57;;;1.10;;
21521;SDS011;10922;45.572;10.002;2023-04-25T13:20:52;1.60;;;1.13;;
21521;SDS011;10922;45.572;10.002;2023-04-25T13:23:18;1.80;;;1.27;;
21521;SDS011;10922;45.572;10.002;2023-04-25T13:25:45;2.60;;;1.20;;
21521;SDS011;10922;45.572;10.002;2023-04-25T13:28:11;2.07;;;1.50;;
21521;SDS011;10922;45.572;10.002;2023-04-25T13:30:36;1.53;;;1.43;;
21521;SDS011;10922;45.572;10.002;2023-04-25T13:33:02;2.33;;;1.30;;
21521;SDS011;10922;45.572;10.002;2023-04-25T13:35:29;1.67;;;1.10;;
21521;SDS011;10922;45.572;10.002;2023-04-25T13:37:55;2.03;;;0.90;;
21521;SDS011;10922;45.572;10.002;2023-04-25T13:40:21;0.45;;;0.45;;
21521;SDS011;10922;45.572;10.002;2023-04-25T13:42:47;0.90;;;0.90;;
21521;SDS011;10922;45.572;10.002;2023-04-25T13:45:13;1.15;;;1.05;;
21521;SDS011;10922;45.572;10.002;2023-04-25T13:47:38;1.52;;;0.90;;
21521;SDS011;10922;45.572;10.002;2023-04-25T13:50:04;1.63;;;0.70;;
21521;SDS011;10922;45.572;10.002;2023-04-25T13:52:30;0.80;;;0.80;;
21521;SDS011;10922;45.572;10.002;2023-04-25T13:54:56;1.08;;;1.00;;
21521;SDS011;10922;45.572;10.002;2023-04-25T13:57:22;0.90;;;0.70;;
21521;SDS011;10922;45.572;10.002;2023-04-25T13:59:48;3.97;;;0.93;;
21521;SDS011;10922;45.572;10.002;2023-04-25T14:02:15;0.68;;;0.68;;
21521;SDS011;10922;45.572;10.002;2023-04-25T14:04:41;0.70;;;0.70;;
21521;SDS011;10922;45.572;10.002;2023-04-25T14:07:07;1.02;;;1.02;;
21521;SDS011;10922;45.572;10.002;2023-04-25T14:09:34;1.10;;;1.00;;
21521;SDS011;10922;45.572;10.002;2023-04-25T14:11:59;0.95;;;0.90;;
21521;SDS011;10922;45.572;10.002;2023-04-25T14:14:25;1.95;;;1.75;;
21521;SDS011;10922;45.572;10.002;2023-04-25T14:16:51;9.05;;;8.02;;
21521;SDS011;10922;45.572;10.002;2023-04-25T14:19:19;1.65;;;1.55;;
21521;SDS011;10922;45.572;10.002;2023-04-25T14:21:45;1.40;;;1.30;;
21521;SDS011;10922;45.572;10.002;2023-04-25T14:24:11;1.10;;;1.10;;
21521;SDS011;10922;45.572;10.002;2023-04-25T14:26:38;1.35;;;0.70;;
21521;SDS011;10922;45.572;10.002;2023-04-25T14:29:05;1.38;;;1.20;;
21521;SDS011;10922;45.572;10.002;2023-04-25T14:31:32;0.75;;;0.75;;
21521;SDS011;10922;45.572;10.002;2023-04-25T14:33:58;1.60;;;1.30;;
21521;SDS011;10922;45.572;10.002;2023-04-25T14:36:24;0.80;;;0.80;;
21521;SDS011;10922;45.572;10.002;2023-04-25T14:38:51;0.68;;;0.68;;
21521;SDS011;10922;45.572;10.002;2023-04-25T14:41:17;1.55;;;1.00;;
21521;SDS011;10922;45.572;10.002;2023-04-25T14:43:43;0.93;;;0.90;;
21521;SDS011;10922;45.572;10.002;2023-04-25T14:46:10;1.17;;;1.08;;
21521;SDS011;10922;45.572;10.002;2023-04-25T14:48:36;2.15;;;0.80;;
21521;SDS011;10922;45.572;10.002;2023-04-25T14:51:01;1.20;;;1.10;;